Terminal Aerodrome Forecast
Issued by NWS

Current Version | Previous Version | Text Only | Print | Product List | Glossary On
Versions: 1 2 3 4 5 6 7 8 9 10 11 12 13 14 15 16 17 18 19 20 21 22
000
FTUS41 KGYX 221122
TAFRKD
TAF
KRKD 221122Z 2212/2312 VRB03KT 1/4SM FG OVC002
     FM221400 25011G17KT 1SM BR SCT003 BKN020
     FM221500 28012G20KT P6SM BKN050
     FM230000 29007KT P6SM SCT050
      AMD LTD TO CLD VIS AND WIND=

USA.gov is the U.S. government's official web portal to all federal, state and local government web resources and services.